Time;durP1;ratioP1;P1;durP2;ratioP2;P2;SDS_P1;SDS_P2;PMS_P1;PMS_P2;Temp;Humidity;BMP_temperature;BMP_pressure;BME280_temperature;BME280_humidity;BME280_pressure;Samples;Min_cycle;Max_cycle;Signal;HPM_P1;HPM_P2
2023/01/13 00:02:21;;;;;;;;;;;8.70;99.90;;;;;;5021476;28;20055;-90
2023/01/13 00:04:47;;;;;;;;;;;8.60;99.90;;;;;;5025001;28;19932;-90
2023/01/13 00:07:12;;;;;;;;;;;8.60;99.90;;;;;;5043320;28;19928;-90
2023/01/13 00:09:38;;;;;;;;;;;8.50;99.90;;;;;;5007831;28;20350;-90
2023/01/13 00:12:04;;;;;;;;;;;8.50;99.90;;;;;;5023813;28;19991;-89
2023/01/13 00:14:32;;;;;;;;;;;8.50;99.90;;;;;;5022832;28;19931;-90
2023/01/13 00:16:58;;;;;;;;;;;8.40;99.90;;;;;;5038207;28;19921;-90
2023/01/13 00:19:23;;;;;;;;;;;8.30;99.90;;;;;;5023334;28;19951;-90
2023/01/13 00:21:49;;;;;;;;;;;8.30;99.90;;;;;;5041956;28;20451;-90
2023/01/13 00:24:14;;;;;;;;;;;8.30;99.90;;;;;;5022734;28;20016;-89
2023/01/13 00:26:40;;;;;;;;;;;8.20;99.90;;;;;;5021686;28;19925;-90
2023/01/13 00:29:05;;;;;;;;;;;8.10;99.90;;;;;;5038816;28;20530;-90
2023/01/13 00:31:31;;;;;;;;;;;8.00;99.90;;;;;;5023790;28;19929;-90
2023/01/13 00:33:58;;;;;;;;;;;8.00;99.90;;;;;;5021553;28;20452;-90
2023/01/13 00:36:23;;;;;;;;;;;7.90;99.90;;;;;;5020286;28;19968;-90
2023/01/13 00:38:49;;;;;;;;;;;7.90;99.90;;;;;;5040101;28;19967;-88
2023/01/13 00:41:16;;;;;;;;;;;7.80;99.90;;;;;;5026358;28;19932;-91
2023/01/13 00:43:42;;;;;;;;;;;7.80;99.90;;;;;;5022769;28;19929;-90
2023/01/13 00:46:08;;;;;;;;;;;7.70;99.90;;;;;;5020788;28;20456;-90
2023/01/13 00:48:34;;;;;;;;;;;7.70;99.90;;;;;;5038916;28;19921;-91
2023/01/13 00:51:01;;;;;;;;;;;7.60;99.90;;;;;;5021494;28;20789;-90
2023/01/13 00:53:27;;;;;;;;;;;7.50;99.90;;;;;;5022888;28;19959;-92
2023/01/13 00:56:04;;;;;;;;;;;7.50;99.90;;;;;;5027031;28;20304;-91
2023/01/13 00:58:30;;;;;;;;;;;7.50;99.90;;;;;;5037597;28;20262;-91
2023/01/13 01:01:00;;;;;;;;;;;7.50;99.90;;;;;;5022436;28;19971;-91
2023/01/13 01:03:26;;;;;;;;;;;7.50;99.90;;;;;;5038223;28;19929;-89
2023/01/13 01:05:51;;;;;;;;;;;7.40;99.90;;;;;;5023538;28;19932;-90
2023/01/13 01:08:17;;;;;;;;;;;7.40;99.90;;;;;;5020411;28;20394;-90
2023/01/13 01:10:42;;;;;;;;;;;7.40;99.90;;;;;;5023037;28;19928;-90
2023/01/13 01:13:10;;;;;;;;;;;7.40;99.90;;;;;;5022289;28;19932;-90
2023/01/13 01:15:38;;;;;;;;;;;7.40;99.90;;;;;;5037990;28;19980;-91
2023/01/13 01:18:04;;;;;;;;;;;7.40;99.90;;;;;;5038535;28;20452;-90
2023/01/13 01:20:30;;;;;;;;;;;7.40;99.90;;;;;;5024965;28;19925;-90
2023/01/13 01:22:55;;;;;;;;;;;7.40;99.90;;;;;;5023586;28;20477;-90
2023/01/13 01:25:21;;;;;;;;;;;7.40;99.90;;;;;;5005702;28;19936;-90
2023/01/13 01:27:46;;;;;;;;;;;7.40;99.90;;;;;;5023002;28;19928;-90
2023/01/13 01:30:12;;;;;;;;;;;7.50;99.90;;;;;;5023817;28;20350;-90
2023/01/13 01:32:38;;;;;;;;;;;7.60;99.90;;;;;;5022039;28;20356;-90
2023/01/13 01:35:03;;;;;;;;;;;7.50;99.90;;;;;;5022619;28;20005;-89
2023/01/13 01:37:29;;;;;;;;;;;7.60;99.90;;;;;;5023564;28;20275;-90
2023/01/13 01:39:54;;;;;;;;;;;7.60;99.90;;;;;;5018791;28;19921;-91
2023/01/13 01:45:14;;;;;;;;;;;7.80;99.90;;;;;;5037624;28;20348;-91
2023/01/13 01:47:40;;;;;;;;;;;7.80;99.90;;;;;;5021144;28;19925;-90
2023/01/13 01:50:06;;;;;;;;;;;7.80;99.90;;;;;;5021596;28;19921;-90
2023/01/13 01:52:34;;;;;;;;;;;7.70;99.90;;;;;;5035359;28;19929;-90
2023/01/13 01:55:15;;;;;;;;;;;7.80;99.90;;;;;;5039475;28;19921;-91
2023/01/13 01:57:49;;;;;;;;;;;7.70;99.90;;;;;;5038114;28;19929;-90
2023/01/13 02:00:15;;;;;;;;;;;7.80;99.90;;;;;;5021040;28;19921;-91
2023/01/13 02:02:42;;;;;;;;;;;7.70;99.90;;;;;;5021943;28;19929;-91
2023/01/13 02:05:08;;;;;;;;;;;7.60;99.90;;;;;;5022249;28;20007;-91
2023/01/13 02:07:34;;;;;;;;;;;7.60;99.90;;;;;;5022979;28;20008;-90
2023/01/13 02:10:02;;;;;;;;;;;7.80;99.90;;;;;;5036565;28;20019;-91
2023/01/13 02:12:28;;;;;;;;;;;7.60;99.90;;;;;;5023251;28;20011;-91
2023/01/13 02:14:56;;;;;;;;;;;7.50;99.90;;;;;;5024144;28;20020;-91
2023/01/13 02:17:31;;;;;;;;;;;7.60;99.90;;;;;;5037716;28;19963;-91
2023/01/13 02:20:10;;;;;;;;;;;7.40;99.90;;;;;;5037929;28;19929;-91
2023/01/13 02:22:54;;;;;;;;;;;7.50;99.90;;;;;;5021851;28;19925;-90
2023/01/13 02:25:26;;;;;;;;;;;7.40;99.90;;;;;;5034196;28;19921;-90
2023/01/13 02:27:56;;;;;;;;;;;7.40;99.90;;;;;;5035210;28;20019;-91
2023/01/13 02:33:35;;;;;;;;;;;7.30;99.90;;;;;;5040304;28;19929;-90
2023/01/13 02:36:21;;;;;;;;;;;7.30;99.90;;;;;;5019483;28;19927;-90
2023/01/13 02:38:49;;;;;;;;;;;7.30;99.90;;;;;;5035593;28;19964;-91
2023/01/13 02:44:10;;;;;;;;;;;7.20;99.90;;;;;;5038034;28;19976;-90
2023/01/13 02:46:45;;;;;;;;;;;7.20;99.90;;;;;;5021550;28;19925;-90
2023/01/13 02:49:15;;;;;;;;;;;7.20;99.90;;;;;;5026652;28;20397;-90
2023/01/13 02:51:43;;;;;;;;;;;7.20;99.90;;;;;;5041115;28;19988;-90
2023/01/13 02:54:11;;;;;;;;;;;7.20;99.90;;;;;;5023681;28;19967;-90
2023/01/13 02:56:39;;;;;;;;;;;7.10;99.90;;;;;;5024807;28;19932;-90
2023/01/13 02:59:05;;;;;;;;;;;7.00;99.90;;;;;;5025108;28;20271;-90
2023/01/13 03:01:30;;;;;;;;;;;7.00;99.90;;;;;;5007127;28;20282;-91
2023/01/13 03:03:56;;;;;;;;;;;7.00;99.90;;;;;;5008807;28;19986;-90
2023/01/13 03:06:35;;;;;;;;;;;7.00;99.90;;;;;;5040876;28;19929;-91
2023/01/13 03:09:20;;;;;;;;;;;7.10;99.90;;;;;;5021813;28;19975;-90
2023/01/13 03:11:59;;;;;;;;;;;7.10;99.90;;;;;;5024163;28;19939;-91
2023/01/13 03:14:38;;;;;;;;;;;7.00;99.90;;;;;;5038897;28;20622;-90
2023/01/13 03:17:23;;;;;;;;;;;7.00;99.90;;;;;;5022817;28;20055;-90
2023/01/13 03:19:56;;;;;;;;;;;7.10;99.90;;;;;;5041851;28;19948;-90
2023/01/13 03:22:27;;;;;;;;;;;7.10;99.90;;;;;;5022146;28;19921;-90
2023/01/13 03:24:59;;;;;;;;;;;7.10;99.90;;;;;;5036278;28;19947;-90
2023/01/13 03:27:34;;;;;;;;;;;7.10;99.90;;;;;;5040127;28;20006;-90
2023/01/13 03:30:02;;;;;;;;;;;7.20;99.90;;;;;;5031363;28;20422;-90
2023/01/13 03:32:31;;;;;;;;;;;7.30;99.90;;;;;;5023388;28;20403;-90
2023/01/13 03:34:59;;;;;;;;;;;7.20;99.90;;;;;;5039053;28;19925;-91
2023/01/13 03:37:28;;;;;;;;;;;7.30;99.90;;;;;;5023528;28;19929;-91
2023/01/13 03:39:57;;;;;;;;;;;7.30;99.90;;;;;;5024512;28;19977;-90
2023/01/13 03:42:24;;;;;;;;;;;7.20;99.90;;;;;;5038759;28;19959;-90
2023/01/13 03:45:01;;;;;;;;;;;7.30;99.90;;;;;;5021805;28;19925;-90
2023/01/13 03:47:30;;;;;;;;;;;7.30;99.90;;;;;;5022571;28;20844;-90
2023/01/13 03:50:00;;;;;;;;;;;7.40;99.90;;;;;;5026322;28;19929;-90
2023/01/13 03:52:52;;;;;;;;;;;7.40;99.90;;;;;;5022144;28;19924;-91
2023/01/13 03:55:21;;;;;;;;;;;7.40;99.90;;;;;;5020773;28;19928;-91
2023/01/13 03:58:09;;;;;;;;;;;7.40;99.90;;;;;;5022512;28;19939;-90
2023/01/13 04:00:37;;;;;;;;;;;7.30;99.90;;;;;;5038879;28;19925;-90
2023/01/13 04:03:05;;;;;;;;;;;7.30;99.90;;;;;;5024366;28;20033;-90
2023/01/13 04:05:33;;;;;;;;;;;7.40;99.90;;;;;;5024078;28;20012;-90
2023/01/13 04:08:10;;;;;;;;;;;7.40;99.90;;;;;;5038080;28;19930;-90
2023/01/13 04:10:43;;;;;;;;;;;7.30;99.90;;;;;;5020187;28;20222;-91
2023/01/13 04:13:15;;;;;;;;;;;7.30;99.90;;;;;;5041058;28;19932;-90
2023/01/13 04:15:44;;;;;;;;;;;7.30;99.90;;;;;;5040045;28;19928;-90
2023/01/13 04:18:14;;;;;;;;;;;7.20;99.90;;;;;;5038447;28;20014;-90
2023/01/13 04:20:41;;;;;;;;;;;7.20;99.90;;;;;;5024132;28;20019;-90
2023/01/13 04:23:07;;;;;;;;;;;7.30;99.90;;;;;;5026040;28;20468;-90
2023/01/13 04:25:32;;;;;;;;;;;7.30;99.90;;;;;;5038172;28;19932;-90
2023/01/13 04:27:58;;;;;;;;;;;7.20;99.90;;;;;;5024435;28;19932;-90
2023/01/13 04:30:24;;;;;;;;;;;7.20;99.90;;;;;;5043362;28;20366;-90
2023/01/13 04:32:49;;;;;;;;;;;7.20;99.90;;;;;;5022998;28;20004;-90
2023/01/13 04:35:15;;;;;;;;;;;7.20;99.90;;;;;;5025448;28;19929;-91
2023/01/13 04:37:40;;;;;;;;;;;7.20;99.90;;;;;;5022282;28;19964;-90
2023/01/13 04:40:08;;;;;;;;;;;7.20;99.90;;;;;;5025323;28;19928;-90
2023/01/13 04:42:34;;;;;;;;;;;7.20;99.90;;;;;;5041205;28;19925;-90
2023/01/13 04:44:59;;;;;;;;;;;7.30;99.90;;;;;;5020803;28;19943;-90
2023/01/13 04:47:25;;;;;;;;;;;7.30;99.90;;;;;;5025412;28;19933;-90
2023/01/13 04:49:50;;;;;;;;;;;7.30;99.90;;;;;;5040442;28;19982;-89
2023/01/13 04:52:16;;;;;;;;;;;7.30;99.90;;;;;;5038135;28;19932;-90
2023/01/13 04:54:42;;;;;;;;;;;7.30;99.90;;;;;;5038876;28;19931;-89
2023/01/13 04:57:07;;;;;;;;;;;7.40;99.90;;;;;;5038874;28;19920;-90
2023/01/13 04:59:33;;;;;;;;;;;7.30;99.90;;;;;;5023222;28;19921;-90
2023/01/13 05:01:58;;;;;;;;;;;7.30;99.90;;;;;;5036633;28;19974;-90
2023/01/13 05:04:24;;;;;;;;;;;7.30;99.90;;;;;;5027549;28;20168;-90
2023/01/13 05:06:49;;;;;;;;;;;7.30;99.90;;;;;;5041180;28;19975;-90
2023/01/13 05:09:15;;;;;;;;;;;7.30;99.90;;;;;;5038625;28;20003;-89
2023/01/13 05:17:13;;;;;;;;;;;7.30;99.90;;;;;;5042844;28;19929;-90
2023/01/13 05:19:39;;;;;;;;;;;7.30;99.90;;;;;;5021743;28;19921;-90
2023/01/13 05:27:34;;;;;;;;;;;7.40;99.90;;;;;;5037692;28;19932;-90
2023/01/13 05:30:00;;;;;;;;;;;7.40;99.90;;;;;;5021709;28;19921;-90
2023/01/13 05:32:28;;;;;;;;;;;7.30;99.90;;;;;;5038360;28;19925;-90
2023/01/13 05:34:54;;;;;;;;;;;7.30;99.90;;;;;;5020900;28;19921;-90
2023/01/13 05:37:21;;;;;;;;;;;7.30;99.90;;;;;;5036769;28;20389;-89
2023/01/13 05:45:15;;;;;;;;;;;7.30;99.90;;;;;;5039907;28;19928;-90
2023/01/13 05:47:40;;;;;;;;;;;7.30;99.90;;;;;;5022365;28;19921;-89
2023/01/13 05:50:07;;;;;;;;;;;7.40;99.90;;;;;;5020775;28;19947;-87
2023/01/13 05:52:33;;;;;;;;;;;7.40;99.90;;;;;;5023141;28;19932;-88
2023/01/13 05:54:58;;;;;;;;;;;7.30;99.90;;;;;;5057450;28;19921;-87
2023/01/13 05:57:24;;;;;;;;;;;7.40;99.90;;;;;;5005190;28;19928;-87
2023/01/13 05:59:49;;;;;;;;;;;7.30;99.90;;;;;;5008180;28;19963;-87
2023/01/13 06:02:15;;;;;;;;;;;7.40;99.90;;;;;;5020669;28;20453;-87
2023/01/13 06:04:40;;;;;;;;;;;7.30;99.90;;;;;;5038233;28;19929;-87
2023/01/13 06:07:06;;;;;;;;;;;7.40;99.90;;;;;;5020545;28;20369;-88
2023/01/13 06:09:31;;;;;;;;;;;7.40;99.90;;;;;;5022111;28;19921;-88
2023/01/13 06:11:57;;;;;;;;;;;7.40;99.90;;;;;;5004553;28;20390;-88
2023/01/13 06:14:23;;;;;;;;;;;7.30;99.90;;;;;;5037940;28;19928;-88
2023/01/13 06:16:48;;;;;;;;;;;7.30;99.90;;;;;;5046163;28;19921;-87
2023/01/13 06:19:14;;;;;;;;;;;7.30;99.90;;;;;;5020308;28;20640;-88
2023/01/13 06:21:40;;;;;;;;;;;7.30;99.90;;;;;;5005380;28;19932;-87
2023/01/13 06:24:06;;;;;;;;;;;7.40;99.90;;;;;;5040074;28;19928;-87
2023/01/13 06:26:37;;;;;;;;;;;7.30;99.90;;;;;;5042833;28;19925;-88
2023/01/13 06:29:03;;;;;;;;;;;7.40;99.90;;;;;;5056176;28;19928;-89
2023/01/13 06:31:29;;;;;;;;;;;7.40;99.90;;;;;;5010732;28;19924;-89
2023/01/13 06:34:03;;;;;;;;;;;7.40;99.90;;;;;;5045871;28;19925;-88
2023/01/13 06:36:31;;;;;;;;;;;7.30;99.90;;;;;;5041725;28;19921;-89
2023/01/13 06:38:57;;;;;;;;;;;7.30;99.90;;;;;;5024449;28;19949;-88
2023/01/13 06:44:09;;;;;;;;;;;7.40;99.90;;;;;;5045075;28;20313;-88
2023/01/13 06:46:35;;;;;;;;;;;7.40;99.90;;;;;;5035730;28;19925;-90
2023/01/13 06:49:00;;;;;;;;;;;7.40;99.90;;;;;;5029777;28;19920;-88
2023/01/13 06:51:26;;;;;;;;;;;7.40;99.90;;;;;;5021683;28;20389;-89
2023/01/13 06:53:51;;;;;;;;;;;7.30;99.90;;;;;;5039244;28;20014;-89
2023/01/13 06:56:17;;;;;;;;;;;7.40;99.90;;;;;;5008515;28;20336;-89
2023/01/13 06:58:43;;;;;;;;;;;7.40;99.90;;;;;;5009690;28;19921;-89
2023/01/13 07:01:08;;;;;;;;;;;7.30;99.90;;;;;;5040456;28;19921;-89
2023/01/13 07:03:34;;;;;;;;;;;7.40;99.90;;;;;;5043032;28;19948;-89
2023/01/13 07:06:01;;;;;;;;;;;7.30;99.90;;;;;;5006692;28;19929;-89
2023/01/13 07:08:26;;;;;;;;;;;7.40;99.90;;;;;;5008391;28;19932;-89
2023/01/13 07:10:53;;;;;;;;;;;7.30;99.90;;;;;;5024358;28;19921;-89
2023/01/13 07:16:04;;;;;;;;;;;7.40;99.90;;;;;;5038113;28;20366;-89
2023/01/13 07:18:31;;;;;;;;;;;7.40;99.90;;;;;;5042403;28;19978;-88
2023/01/13 07:21:09;;;;;;;;;;;7.30;99.90;;;;;;5038390;28;19925;-88
2023/01/13 07:23:36;;;;;;;;;;;7.30;99.90;;;;;;5009416;28;20278;-88
2023/01/13 07:26:02;;;;;;;;;;;7.30;99.90;;;;;;5060342;28;20027;-89
2023/01/13 07:28:29;;;;;;;;;;;7.30;99.90;;;;;;5025582;28;19921;-89
2023/01/13 07:30:54;;;;;;;;;;;7.30;99.90;;;;;;5008557;28;19925;-88
2023/01/13 07:33:20;;;;;;;;;;;7.30;99.90;;;;;;5026560;28;20146;-88
2023/01/13 07:35:47;;;;;;;;;;;7.20;99.90;;;;;;5038181;28;19921;-88
2023/01/13 07:38:12;;;;;;;;;;;7.20;99.90;;;;;;5043682;28;19989;-88
2023/01/13 07:40:38;;;;;;;;;;;7.20;99.90;;;;;;5026733;28;19921;-89
2023/01/13 07:45:48;;;;;;;;;;;7.20;99.90;;;;;;5040346;28;20009;-86
2023/01/13 07:48:14;;;;;;;;;;;7.30;99.90;;;;;;5022957;28;20400;-85
2023/01/13 07:50:40;;;;;;;;;;;7.20;99.90;;;;;;5025738;28;20122;-88
2023/01/13 07:53:05;;;;;;;;;;;7.30;99.90;;;;;;5035946;28;19975;-86
2023/01/13 07:55:31;;;;;;;;;;;7.30;99.90;;;;;;5031484;28;20004;-87
2023/01/13 07:57:56;;;;;;;;;;;7.30;99.90;;;;;;5040301;28;20385;-86
2023/01/13 08:00:22;;;;;;;;;;;7.30;99.90;;;;;;5023054;28;19964;-86
2023/01/13 08:02:48;;;;;;;;;;;7.30;99.90;;;;;;5035936;28;19971;-87
2023/01/13 08:05:13;;;;;;;;;;;7.30;99.90;;;;;;5044597;28;20480;-86
2023/01/13 08:07:39;;;;;;;;;;;7.30;99.90;;;;;;5031526;28;20006;-86
2023/01/13 08:10:05;;;;;;;;;;;7.20;99.90;;;;;;5039308;28;20447;-86
2023/01/13 08:15:15;;;;;;;;;;;7.20;99.90;;;;;;5021488;28;19921;-83
2023/01/13 08:17:41;;;;;;;;;;;7.10;99.90;;;;;;5023054;28;19921;-83
2023/01/13 08:20:07;;;;;;;;;;;7.10;99.90;;;;;;5027557;28;20454;-86
2023/01/13 08:22:32;;;;;;;;;;;7.10;99.90;;;;;;5025925;28;19917;-86
2023/01/13 08:24:58;;;;;;;;;;;7.10;99.90;;;;;;5014281;28;21004;-86
2023/01/13 08:27:24;;;;;;;;;;;7.00;99.90;;;;;;5019306;28;19933;-86
2023/01/13 08:29:49;;;;;;;;;;;7.00;99.90;;;;;;5021055;28;20437;-85
2023/01/13 08:32:15;;;;;;;;;;;7.00;99.90;;;;;;5012966;28;19979;-88
2023/01/13 08:34:40;;;;;;;;;;;6.90;99.90;;;;;;5010401;28;19935;-87
2023/01/13 08:37:06;;;;;;;;;;;6.80;99.90;;;;;;5019796;28;19964;-87
2023/01/13 08:39:31;;;;;;;;;;;6.80;99.90;;;;;;5002139;28;19924;-86
2023/01/13 08:41:57;;;;;;;;;;;6.70;99.90;;;;;;5037498;28;19924;-86
2023/01/13 08:44:24;;;;;;;;;;;6.70;99.90;;;;;;5020802;28;20385;-89
2023/01/13 08:46:50;;;;;;;;;;;6.80;99.90;;;;;;5020306;28;20176;-88
2023/01/13 08:49:16;;;;;;;;;;;6.70;99.90;;;;;;5019106;28;20400;-85
2023/01/13 08:51:42;;;;;;;;;;;6.70;99.90;;;;;;5019807;28;19929;-86
2023/01/13 08:54:07;;;;;;;;;;;6.70;99.90;;;;;;5003054;28;19928;-85
2023/01/13 08:56:33;;;;;;;;;;;6.70;99.90;;;;;;5019741;28;19928;-85
2023/01/13 08:58:59;;;;;;;;;;;6.70;99.90;;;;;;5020429;28;19979;-87
2023/01/13 09:01:25;;;;;;;;;;;6.70;99.90;;;;;;5016362;28;19921;-84
2023/01/13 09:03:51;;;;;;;;;;;6.70;99.90;;;;;;5017966;28;19935;-84
2023/01/13 09:06:16;;;;;;;;;;;6.70;99.90;;;;;;5017492;28;19962;-84
2023/01/13 09:08:42;;;;;;;;;;;6.80;99.90;;;;;;5034131;28;19929;-82
2023/01/13 09:13:56;;;;;;;;;;;6.80;99.90;;;;;;5031550;28;19967;-83
2023/01/13 09:16:22;;;;;;;;;;;6.70;99.90;;;;;;5035612;28;19964;-86
2023/01/13 09:18:47;;;;;;;;;;;6.80;99.90;;;;;;5029094;28;20078;-86
2023/01/13 09:21:14;;;;;;;;;;;6.80;99.90;;;;;;5023690;28;19928;-86
2023/01/13 09:23:39;;;;;;;;;;;7.70;99.90;;;;;;5000986;28;19929;-88
2023/01/13 09:26:05;;;;;;;;;;;6.80;99.90;;;;;;5022259;28;19933;-89
2023/01/13 09:28:31;;;;;;;;;;;6.80;99.90;;;;;;5025093;28;19968;-88
2023/01/13 09:30:59;;;;;;;;;;;6.90;99.90;;;;;;5015234;28;20348;-89
2023/01/13 09:36:09;;;;;;;;;;;6.90;99.90;;;;;;5031178;28;19928;-88
2023/01/13 09:38:34;;;;;;;;;;;6.90;99.90;;;;;;5013402;28;19921;-88
2023/01/13 09:41:00;;;;;;;;;;;7.00;99.90;;;;;;5014919;28;19972;-88
2023/01/13 09:49:14;;;;;;;;;;;7.00;99.90;;;;;;5057986;28;19932;-88
2023/01/13 09:51:45;;;;;;;;;;;7.10;99.90;;;;;;5016729;28;20374;-87
2023/01/13 09:54:15;;;;;;;;;;;7.10;99.90;;;;;;5027945;28;20278;-85
2023/01/13 09:56:41;;;;;;;;;;;7.20;99.90;;;;;;5018056;28;19928;-86
2023/01/13 09:59:09;;;;;;;;;;;7.30;99.90;;;;;;5018374;28;19944;-87
2023/01/13 10:01:44;;;;;;;;;;;7.30;99.90;;;;;;5027177;28;19956;-85
2023/01/13 10:04:11;;;;;;;;;;;7.40;99.90;;;;;;5029445;28;19999;-86
2023/01/13 10:06:37;;;;;;;;;;;7.40;99.90;;;;;;5023097;28;19929;-86
2023/01/13 10:09:03;;;;;;;;;;;7.40;99.90;;;;;;5018897;28;19921;-85
2023/01/13 10:14:25;;;;;;;;;;;7.40;99.90;;;;;;5042974;28;19925;-85
2023/01/13 10:17:11;;;;;;;;;;;7.40;99.90;;;;;;5039256;28;20366;-84
2023/01/13 10:19:43;;;;;;;;;;;7.30;99.90;;;;;;5030546;28;20003;-86
2023/01/13 10:22:23;;;;;;;;;;;7.50;99.90;;;;;;5042992;28;19921;-85
2023/01/13 10:24:55;;;;;;;;;;;7.50;99.90;;;;;;5055614;28;20015;-84
2023/01/13 10:27:23;;;;;;;;;;;7.40;99.90;;;;;;5036145;28;20432;-85
2023/01/13 10:29:49;;;;;;;;;;;7.40;99.90;;;;;;5032163;28;19921;-85
2023/01/13 10:32:14;;;;;;;;;;;7.30;99.90;;;;;;5024448;28;19931;-87
2023/01/13 10:34:49;;;;;;;;;;;7.30;99.90;;;;;;5021582;28;19967;-87
2023/01/13 10:37:19;;;;;;;;;;;7.20;99.90;;;;;;5039653;28;19992;-84
2023/01/13 10:39:47;;;;;;;;;;;7.20;99.90;;;;;;5019016;28;20016;-85
2023/01/13 10:42:13;;;;;;;;;;;7.20;99.90;;;;;;5025062;28;19929;-85
2023/01/13 10:44:49;;;;;;;;;;;7.20;99.90;;;;;;5037498;28;20011;-85
2023/01/13 10:47:19;;;;;;;;;;;7.20;99.90;;;;;;5034188;28;19925;-85
2023/01/13 10:49:57;;;;;;;;;;;7.20;99.90;;;;;;5016947;28;19925;-85
2023/01/13 10:52:27;;;;;;;;;;;7.20;99.90;;;;;;5036119;28;20396;-85
2023/01/13 10:54:53;;;;;;;;;;;7.20;99.90;;;;;;5016044;28;20293;-85
2023/01/13 10:57:19;;;;;;;;;;;7.20;99.90;;;;;;5017930;28;19982;-85
2023/01/13 10:59:45;;;;;;;;;;;7.20;99.90;;;;;;5017480;28;20372;-85
2023/01/13 11:02:11;;;;;;;;;;;7.30;99.90;;;;;;5001152;28;19975;-85
2023/01/13 11:04:38;;;;;;;;;;;7.30;99.90;;;;;;5016111;28;19925;-85
2023/01/13 11:07:04;;;;;;;;;;;7.30;99.90;;;;;;5016693;28;19932;-85
2023/01/13 11:09:31;;;;;;;;;;;7.30;99.90;;;;;;5017810;28;19928;-85
2023/01/13 11:11:57;;;;;;;;;;;7.30;99.90;;;;;;5001361;28;20000;-85
2023/01/13 11:14:40;;;;;;;;;;;7.30;99.90;;;;;;5039334;28;19927;-85
2023/01/13 11:17:22;;;;;;;;;;;7.20;99.90;;;;;;5033558;28;19921;-85
2023/01/13 11:19:51;;;;;;;;;;;7.20;99.90;;;;;;5032016;28;19932;-86
2023/01/13 11:22:20;;;;;;;;;;;7.20;99.90;;;;;;5033202;28;19974;-85
2023/01/13 11:24:46;;;;;;;;;;;7.30;99.90;;;;;;5035724;28;19917;-85
2023/01/13 11:27:15;;;;;;;;;;;7.30;99.90;;;;;;5033995;28;19932;-85
2023/01/13 11:29:40;;;;;;;;;;;7.30;99.90;;;;;;5016358;28;19929;-85
2023/01/13 11:32:11;;;;;;;;;;;7.40;99.90;;;;;;5016572;28;19928;-85
2023/01/13 11:34:38;;;;;;;;;;;7.30;99.90;;;;;;5034509;28;20022;-85
2023/01/13 11:37:16;;;;;;;;;;;7.30;99.90;;;;;;5042863;28;19941;-86
2023/01/13 11:39:54;;;;;;;;;;;7.30;99.90;;;;;;5022537;28;19928;-85
2023/01/13 11:42:25;;;;;;;;;;;7.30;99.90;;;;;;5041047;28;20436;-86
2023/01/13 11:44:57;;;;;;;;;;;7.30;99.90;;;;;;5018746;28;19928;-85
2023/01/13 11:47:24;;;;;;;;;;;7.30;99.90;;;;;;5040447;28;20436;-85
2023/01/13 11:49:49;;;;;;;;;;;7.30;99.90;;;;;;5016908;28;19939;-85
2023/01/13 11:52:20;;;;;;;;;;;7.30;99.90;;;;;;5016686;28;19920;-85
2023/01/13 11:55:04;;;;;;;;;;;7.40;99.90;;;;;;5026396;28;19921;-85
2023/01/13 11:57:36;;;;;;;;;;;7.40;99.90;;;;;;5032511;28;19921;-85
2023/01/13 12:00:07;;;;;;;;;;;7.50;99.90;;;;;;5038691;28;20412;-85
2023/01/13 12:02:33;;;;;;;;;;;7.50;99.90;;;;;;5019578;28;20025;-86
2023/01/13 12:05:17;;;;;;;;;;;7.50;99.90;;;;;;5025306;28;19968;-86
2023/01/13 12:07:52;;;;;;;;;;;7.40;99.90;;;;;;5037242;28;19926;-85
2023/01/13 12:10:22;;;;;;;;;;;7.40;99.90;;;;;;5037548;28;20466;-86
2023/01/13 12:13:13;;;;;;;;;;;7.50;99.90;;;;;;5017807;28;20358;-89
2023/01/13 12:15:49;;;;;;;;;;;7.50;99.90;;;;;;5026767;28;19920;-83
2023/01/13 12:18:25;;;;;;;;;;;7.50;99.90;;;;;;5032771;28;19921;-87
2023/01/13 12:21:00;;;;;;;;;;;7.60;99.90;;;;;;5039736;28;20003;-86
2023/01/13 12:23:29;;;;;;;;;;;7.60;99.90;;;;;;5037033;28;19929;-88
2023/01/13 12:26:00;;;;;;;;;;;7.60;99.90;;;;;;5032509;28;19925;-88
2023/01/13 12:28:27;;;;;;;;;;;7.60;99.90;;;;;;5024678;28;19970;-86
2023/01/13 12:31:02;;;;;;;;;;;7.50;99.90;;;;;;5018237;28;19927;-87
2023/01/13 12:33:42;;;;;;;;;;;7.50;99.90;;;;;;5025194;28;19921;-84
2023/01/13 12:36:15;;;;;;;;;;;7.50;99.90;;;;;;5018596;28;19956;-87
2023/01/13 12:38:44;;;;;;;;;;;7.50;99.90;;;;;;5018826;28;20453;-87
2023/01/13 12:41:30;;;;;;;;;;;7.60;99.90;;;;;;5087417;28;19924;-73
2023/01/13 12:46:43;;;;;;;;;;;7.60;99.90;;;;;;5087182;28;19920;-74
2023/01/13 12:49:17;;;;;;;;;;;7.60;99.90;;;;;;5087550;28;19920;-74
2023/01/13 12:51:54;;;;;;;;;;;7.60;99.90;;;;;;5080358;28;20384;-73
2023/01/13 12:54:32;;;;;;;;;;;7.50;99.90;;;;;;5080582;28;19921;-73
2023/01/13 12:57:25;;;;;;;;;;;7.50;99.90;;;;;;5086122;28;19924;-73
2023/01/13 13:00:03;;;;;;;;;;;7.50;99.90;;;;;;5068849;28;19925;-74
2023/01/13 13:02:33;;;;;;;;;;;7.40;99.90;;;;;;5082675;28;20011;-74
2023/01/13 13:05:22;;;;;;;;;;;7.40;99.90;;;;;;5082688;28;20020;-74
2023/01/13 13:08:11;;;;;;;;;;;7.40;99.90;;;;;;5029584;28;20547;-74
2023/01/13 13:10:39;;;;;;;;;;;7.50;99.90;;;;;;5079135;28;20323;-74
2023/01/13 13:13:18;;;;;;;;;;;7.50;99.90;;;;;;5067289;28;19934;-74
2023/01/13 13:15:47;;;;;;;;;;;7.50;99.90;;;;;;5075592;28;19933;-74
2023/01/13 13:18:16;;;;;;;;;;;7.60;99.90;;;;;;5072505;28;19989;-74
2023/01/13 13:21:00;;;;;;;;;;;7.60;99.90;;;;;;5062323;28;19924;-74
2023/01/13 13:23:44;;;;;;;;;;;7.60;99.90;;;;;;5078530;28;19921;-73
2023/01/13 13:26:13;;;;;;;;;;;7.60;99.90;;;;;;5093146;28;19927;-74
2023/01/13 13:28:43;;;;;;;;;;;7.60;99.90;;;;;;5075440;28;19921;-74
2023/01/13 13:31:27;;;;;;;;;;;7.60;99.90;;;;;;5070733;28;20065;-74
2023/01/13 13:34:16;;;;;;;;;;;7.60;99.90;;;;;;5069101;28;19928;-74
2023/01/13 13:36:52;;;;;;;;;;;7.60;99.90;;;;;;5043130;28;20331;-74
2023/01/13 13:47:44;;;;;;;;;;;7.70;99.90;;;;;;5089356;28;19929;-74
2023/01/13 13:50:14;;;;;;;;;;;7.70;99.90;;;;;;5057546;28;19929;-74
2023/01/13 13:52:50;;;;;;;;;;;7.80;99.90;;;;;;5062948;28;19931;-74
2023/01/13 13:55:20;;;;;;;;;;;7.90;99.90;;;;;;5062331;28;19928;-74
2023/01/13 13:57:47;;;;;;;;;;;7.90;99.90;;;;;;5040007;28;19928;-74
2023/01/13 14:00:13;;;;;;;;;;;7.90;99.90;;;;;;5057175;28;19932;-74
2023/01/13 14:02:45;;;;;;;;;;;8.00;99.90;;;;;;5044628;28;20382;-74
2023/01/13 14:05:10;;;;;;;;;;;8.00;99.90;;;;;;5056793;28;20400;-74
2023/01/13 14:07:43;;;;;;;;;;;8.00;99.90;;;;;;5046749;28;19928;-74
2023/01/13 14:10:20;;;;;;;;;;;8.00;99.90;;;;;;5061574;28;19924;-74
2023/01/13 14:12:46;;;;;;;;;;;7.90;99.90;;;;;;5058912;28;19931;-74
2023/01/13 14:15:23;;;;;;;;;;;7.90;99.90;;;;;;5060662;28;21034;-74
2023/01/13 14:17:49;;;;;;;;;;;7.90;99.90;;;;;;5044749;28;20261;-74
2023/01/13 14:20:16;;;;;;;;;;;7.80;99.90;;;;;;5040479;28;20437;-74
2023/01/13 14:22:48;;;;;;;;;;;7.80;99.90;;;;;;5045015;28;20735;-73
2023/01/13 14:25:38;;;;;;;;;;;7.80;99.90;;;;;;5061605;28;19925;-74
2023/01/13 14:28:20;;;;;;;;;;;7.70;99.90;;;;;;5049792;28;19929;-74
2023/01/13 14:30:46;;;;;;;;;;;7.70;99.90;;;;;;5056193;28;19932;-74
2023/01/13 14:33:14;;;;;;;;;;;7.70;99.90;;;;;;5043639;28;19985;-74
2023/01/13 14:36:00;;;;;;;;;;;7.60;99.90;;;;;;5059971;28;20483;-74
2023/01/13 14:38:25;;;;;;;;;;;7.60;99.90;;;;;;5044315;28;19921;-74
2023/01/13 14:40:52;;;;;;;;;;;7.60;99.90;;;;;;5057355;28;20394;-73
2023/01/13 14:43:20;;;;;;;;;;;7.60;99.90;;;;;;5057907;28;20031;-74
2023/01/13 14:45:54;;;;;;;;;;;7.60;99.90;;;;;;5059762;28;20698;-75
2023/01/13 14:48:29;;;;;;;;;;;7.60;99.90;;;;;;5042943;28;19921;-74
2023/01/13 14:50:55;;;;;;;;;;;7.60;99.90;;;;;;5041690;28;19980;-74
2023/01/13 14:53:30;;;;;;;;;;;7.50;99.90;;;;;;5041571;28;19979;-75
2023/01/13 14:55:56;;;;;;;;;;;7.50;99.90;;;;;;5059035;28;19928;-74
2023/01/13 14:58:22;;;;;;;;;;;7.50;99.90;;;;;;5059095;28;20337;-75
2023/01/13 15:01:07;;;;;;;;;;;7.50;99.90;;;;;;5043284;28;19933;-74
2023/01/13 15:03:38;;;;;;;;;;;7.50;99.90;;;;;;5057909;28;19932;-74
2023/01/13 15:06:19;;;;;;;;;;;7.50;99.90;;;;;;5057558;28;20386;-74
2023/01/13 15:08:45;;;;;;;;;;;7.60;99.90;;;;;;5042135;28;19929;-74
2023/01/13 15:11:20;;;;;;;;;;;7.70;99.90;;;;;;5042374;28;19978;-74
2023/01/13 15:13:49;;;;;;;;;;;7.70;99.90;;;;;;5040563;28;20776;-73
2023/01/13 15:16:16;;;;;;;;;;;7.70;99.90;;;;;;5055214;28;20381;-74
2023/01/13 15:18:42;;;;;;;;;;;7.80;99.90;;;;;;5068758;28;20398;-73
2023/01/13 15:21:08;;;;;;;;;;;7.80;99.90;;;;;;4990638;28;19932;-74
2023/01/13 15:23:40;;;;;;;;;;;7.70;99.90;;;;;;5025083;28;19931;-75
2023/01/13 15:26:28;;;;;;;;;;;7.80;99.90;;;;;;4975263;28;20333;-74
2023/01/13 15:28:59;;;;;;;;;;;7.80;99.90;;;;;;5026415;28;20560;-73
2023/01/13 15:31:26;;;;;;;;;;;7.90;99.90;;;;;;4997084;28;19924;-74
2023/01/13 15:33:51;;;;;;;;;;;7.90;99.90;;;;;;5022691;28;19967;-74
2023/01/13 15:36:26;;;;;;;;;;;8.00;99.90;;;;;;5057146;28;20401;-74
2023/01/13 15:38:52;;;;;;;;;;;7.90;99.90;;;;;;5059739;28;19928;-74
2023/01/13 15:46:36;;;;;;;;;;;7.90;99.90;;;;;;5057214;28;20290;-74
2023/01/13 15:46:49;;;;;;;;;;;7.90;99.90;;;;;;5045183;28;19968;-74
2023/01/13 15:49:34;;;;;;;;;;;8.00;99.90;;;;;;5056633;28;20011;-74